createdAt,value
2023-02-15T00:01:22.886Z,23.50
2023-02-15T00:03:52.261Z,23.50
2023-02-15T00:06:21.176Z,23.50
2023-02-15T00:08:50.144Z,23.50
2023-02-15T00:11:38.899Z,23.50
2023-02-15T00:14:15.948Z,23.50
2023-02-15T00:16:46.077Z,23.40
2023-02-15T00:19:17.424Z,23.50
2023-02-15T00:21:47.573Z,23.40
2023-02-15T00:24:19.292Z,23.50
2023-02-15T00:26:49.174Z,23.40
2023-02-15T00:29:20.344Z,23.40
2023-02-15T00:31:50.363Z,23.50
2023-02-15T00:34:31.062Z,23.40
2023-02-15T00:37:00.230Z,23.40
2023-02-15T00:39:31.015Z,23.50
2023-02-15T00:42:00.088Z,23.40
2023-02-15T00:44:29.126Z,23.50
2023-02-15T00:46:58.106Z,23.50
2023-02-15T00:49:27.068Z,23.50
2023-02-15T00:51:56.020Z,23.60
2023-02-15T00:54:25.238Z,23.60
2023-02-15T00:56:54.155Z,23.60
2023-02-15T00:59:23.095Z,23.60
2023-02-15T01:01:52.011Z,23.60
2023-02-15T01:04:20.962Z,23.70
2023-02-15T01:06:49.982Z,23.70
2023-02-15T01:09:18.865Z,23.70
2023-02-15T01:12:02.739Z,23.70
2023-02-15T01:14:33.234Z,23.70
2023-02-15T01:17:05.116Z,23.80
2023-02-15T01:19:35.175Z,23.80
2023-02-15T01:22:04.284Z,23.80
2023-02-15T01:24:33.381Z,23.90
2023-02-15T01:27:02.330Z,23.90
2023-02-15T01:29:31.277Z,24.00
2023-02-15T01:32:00.282Z,24.00
2023-02-15T01:34:29.269Z,24.10
2023-02-15T01:36:58.144Z,24.10
2023-02-15T01:39:27.116Z,24.20
2023-02-15T01:41:56.346Z,24.20
2023-02-15T01:44:49.665Z,24.40
2023-02-15T01:47:41.145Z,24.40
2023-02-15T01:50:27.840Z,24.50
2023-02-15T01:53:09.022Z,24.60
2023-02-15T01:55:49.728Z,24.80
2023-02-15T01:58:19.231Z,24.90
2023-02-15T02:00:48.291Z,25.00
2023-02-15T02:03:18.017Z,25.10
2023-02-15T02:05:46.947Z,25.30
2023-02-15T02:08:16.051Z,25.30
2023-02-15T02:10:48.093Z,25.40
2023-02-15T02:13:17.201Z,25.50
2023-02-15T02:15:55.295Z,25.50
2023-02-15T02:18:31.792Z,25.60
2023-02-15T02:21:44.534Z,25.70
2023-02-15T02:25:01.302Z,25.80
2023-02-15T02:27:36.373Z,26.00
2023-02-15T02:30:11.102Z,26.10
2023-02-15T02:33:04.735Z,26.10
2023-02-15T02:35:55.962Z,26.10
2023-02-15T02:38:43.250Z,26.10
2023-02-15T02:41:38.641Z,26.10
2023-02-15T02:44:23.701Z,26.10
2023-02-15T02:47:28.130Z,26.10
2023-02-15T02:50:03.959Z,26.00
2023-02-15T02:52:48.874Z,26.00
2023-02-15T02:55:45.508Z,26.00
2023-02-15T02:58:29.271Z,25.90
2023-02-15T03:01:08.380Z,25.90
2023-02-15T03:03:42.593Z,25.80
2023-02-15T03:06:22.827Z,25.80
2023-02-15T03:08:57.198Z,25.80
2023-02-15T03:11:26.280Z,25.80
2023-02-15T03:13:55.364Z,25.70
2023-02-15T03:16:30.859Z,25.70
2023-02-15T03:19:15.684Z,25.70
2023-02-15T03:22:22.421Z,25.60
2023-02-15T03:24:59.100Z,25.60
2023-02-15T03:27:34.834Z,25.60
2023-02-15T03:30:06.094Z,25.60
2023-02-15T03:32:36.937Z,25.60
2023-02-15T03:35:06.567Z,25.50
2023-02-15T03:37:43.291Z,25.50
2023-02-15T03:40:43.665Z,25.50
2023-02-15T03:43:28.691Z,25.60
2023-02-15T03:46:08.288Z,25.60
2023-02-15T03:48:44.479Z,25.70
2023-02-15T03:51:36.114Z,25.80
2023-02-15T03:54:07.254Z,25.80
2023-02-15T03:56:38.700Z,25.90
2023-02-15T03:59:25.815Z,26.10
2023-02-15T04:02:27.030Z,26.20
2023-02-15T04:04:55.932Z,26.40
2023-02-15T04:07:25.041Z,26.50
2023-02-15T04:10:12.182Z,26.70
2023-02-15T04:12:41.041Z,26.80
2023-02-15T04:15:32.587Z,27.10
2023-02-15T04:18:01.559Z,27.20
2023-02-15T04:20:48.886Z,27.30
2023-02-15T04:23:36.168Z,27.30
2023-02-15T04:26:08.404Z,27.50
2023-02-15T04:28:37.732Z,27.50
2023-02-15T04:31:06.640Z,27.50
2023-02-15T04:33:38.479Z,27.50
2023-02-15T04:36:08.758Z,27.60
2023-02-15T04:38:37.846Z,27.60
2023-02-15T04:41:06.748Z,27.80
2023-02-15T04:43:35.636Z,27.90
2023-02-15T04:46:04.862Z,28.00
2023-02-15T04:48:34.165Z,28.10
2023-02-15T04:51:09.172Z,28.20
2023-02-15T04:53:38.434Z,28.30
2023-02-15T04:56:07.366Z,28.30
2023-02-15T04:58:37.223Z,28.40
2023-02-15T05:01:09.232Z,28.40
2023-02-15T05:03:38.429Z,28.50
2023-02-15T05:06:10.710Z,28.50
2023-02-15T05:08:39.674Z,28.50
2023-02-15T05:11:10.380Z,28.50
2023-02-15T05:13:39.492Z,28.60
2023-02-15T05:16:08.369Z,28.60
2023-02-15T05:18:37.253Z,28.60
2023-02-15T05:21:06.666Z,28.60
2023-02-15T05:23:35.577Z,28.60
2023-02-15T05:26:22.571Z,28.60
2023-02-15T05:28:51.442Z,28.60
2023-02-15T05:31:21.518Z,28.60
2023-02-15T05:33:50.785Z,28.50
2023-02-15T05:36:19.700Z,28.40
2023-02-15T05:38:48.588Z,28.30
2023-02-15T05:41:17.444Z,28.20
2023-02-15T05:43:46.360Z,28.10
2023-02-15T05:46:15.490Z,28.00
2023-02-15T05:48:44.374Z,27.80
2023-02-15T05:51:16.104Z,27.60
2023-02-15T05:53:45.121Z,27.40
2023-02-15T05:56:14.749Z,27.30
2023-02-15T05:58:44.463Z,27.20
2023-02-15T06:01:23.993Z,27.10
2023-02-15T06:03:54.074Z,27.00
2023-02-15T06:06:23.025Z,27.00
2023-02-15T06:08:52.111Z,27.00
2023-02-15T06:11:21.084Z,27.10
2023-02-15T06:13:50.033Z,27.10
2023-02-15T06:16:18.951Z,27.20
2023-02-15T06:18:47.935Z,27.20
2023-02-15T06:21:17.120Z,27.20
2023-02-15T06:23:46.021Z,27.20
2023-02-15T06:26:14.988Z,27.20
2023-02-15T06:28:43.921Z,27.20
2023-02-15T06:31:13.255Z,27.20
2023-02-15T06:33:43.787Z,27.20
2023-02-15T06:36:12.878Z,27.20
2023-02-15T06:38:41.823Z,27.10
2023-02-15T06:41:10.796Z,27.20
2023-02-15T06:43:40.933Z,27.20
2023-02-15T06:46:10.139Z,27.30
2023-02-15T06:48:39.046Z,27.30
2023-02-15T06:51:08.113Z,27.40
2023-02-15T06:53:37.816Z,27.50
2023-02-15T06:56:10.978Z,27.60
2023-02-15T06:58:45.454Z,27.60
2023-02-15T07:01:14.816Z,27.60
2023-02-15T07:03:43.793Z,27.60
2023-02-15T07:06:13.431Z,27.70
2023-02-15T07:08:42.585Z,27.70
2023-02-15T07:11:29.662Z,27.80
2023-02-15T07:13:58.877Z,27.80
2023-02-15T07:16:27.831Z,27.90
2023-02-15T07:18:56.761Z,28.10
2023-02-15T07:21:25.637Z,28.30
2023-02-15T07:23:54.707Z,28.50
2023-02-15T07:26:23.579Z,28.70
2023-02-15T07:28:52.535Z,28.90
2023-02-15T07:31:21.523Z,29.20
2023-02-15T07:33:50.397Z,29.40
2023-02-15T07:36:19.264Z,29.70
2023-02-15T07:38:48.211Z,30.00
2023-02-15T07:41:18.335Z,30.20
2023-02-15T07:43:48.335Z,30.30
2023-02-15T07:46:18.998Z,30.50
2023-02-15T07:48:48.087Z,30.70
2023-02-15T07:51:17.911Z,30.80
2023-02-15T07:53:47.039Z,30.90
2023-02-15T07:56:17.147Z,31.10
2023-02-15T07:58:55.134Z,31.10
2023-02-15T08:01:35.660Z,31.20
2023-02-15T08:04:06.113Z,31.30
2023-02-15T08:06:37.699Z,31.30
2023-02-15T08:09:08.330Z,31.30
2023-02-15T08:11:44.863Z,31.30
2023-02-15T08:14:16.664Z,31.40
2023-02-15T08:16:50.969Z,31.40
2023-02-15T08:19:25.254Z,31.40
2023-02-15T08:21:59.608Z,31.50
2023-02-15T08:24:31.297Z,31.50
2023-02-15T08:27:00.624Z,31.50
2023-02-15T08:29:31.074Z,31.50
2023-02-15T08:32:04.658Z,31.50
2023-02-15T08:34:36.546Z,31.50
2023-02-15T08:37:05.536Z,31.50
2023-02-15T08:39:34.635Z,31.40
2023-02-15T08:42:03.613Z,31.40
2023-02-15T08:44:32.565Z,31.50
2023-02-15T08:47:05.555Z,31.50
2023-02-15T08:49:34.833Z,31.50
2023-02-15T08:52:03.704Z,31.50
2023-02-15T08:54:32.772Z,31.40
2023-02-15T08:57:02.471Z,31.40
2023-02-15T08:59:31.426Z,31.30
2023-02-15T09:02:00.591Z,31.20
2023-02-15T09:04:29.624Z,31.10
2023-02-15T09:06:58.518Z,31.10
2023-02-15T09:09:27.428Z,31.10
2023-02-15T09:11:59.358Z,31.10
2023-02-15T09:14:29.542Z,31.00
2023-02-15T09:16:58.636Z,31.00
2023-02-15T09:19:27.936Z,30.90
2023-02-15T09:21:57.212Z,30.80
2023-02-15T09:24:26.620Z,30.70
2023-02-15T09:26:55.578Z,30.50
2023-02-15T09:29:24.818Z,30.40
2023-02-15T09:31:55.681Z,30.30
2023-02-15T09:34:25.882Z,30.20
2023-02-15T09:36:55.558Z,30.10
2023-02-15T09:39:27.149Z,30.00
2023-02-15T09:42:09.123Z,29.90
2023-02-15T09:45:18.469Z,29.80
2023-02-15T09:48:09.196Z,29.70
2023-02-15T09:50:56.212Z,29.70
2023-02-15T09:53:28.170Z,29.70
2023-02-15T09:56:19.555Z,29.70
2023-02-15T09:58:49.999Z,29.60
2023-02-15T10:01:36.983Z,29.60
2023-02-15T10:04:27.689Z,29.50
2023-02-15T10:07:03.651Z,29.50
2023-02-15T10:09:43.935Z,29.50
2023-02-15T10:12:24.966Z,29.40
2023-02-15T10:15:11.236Z,29.30
2023-02-15T10:18:17.137Z,29.30
2023-02-15T10:20:49.058Z,29.20
2023-02-15T10:23:49.005Z,29.10
2023-02-15T10:26:21.835Z,29.10
2023-02-15T10:29:32.731Z,29.10
2023-02-15T10:32:08.042Z,29.00
2023-02-15T10:34:53.162Z,28.90
2023-02-15T10:37:26.214Z,28.90
2023-02-15T10:40:13.005Z,28.80
2023-02-15T10:43:04.341Z,28.70
2023-02-15T10:46:05.430Z,28.60
2023-02-15T10:49:12.310Z,28.60
2023-02-15T10:52:15.415Z,28.50
2023-02-15T10:54:44.246Z,28.50
2023-02-15T10:57:20.840Z,28.40
2023-02-15T10:59:54.923Z,28.40
2023-02-15T11:02:39.199Z,28.30
2023-02-15T11:05:23.755Z,28.20
2023-02-15T11:07:58.323Z,28.20
2023-02-15T11:10:30.301Z,28.10
2023-02-15T11:13:05.013Z,28.10
2023-02-15T11:15:43.946Z,28.00
2023-02-15T11:18:19.794Z,28.00
2023-02-15T11:21:11.406Z,28.00
2023-02-15T11:23:49.127Z,27.90
2023-02-15T11:26:37.344Z,27.80
2023-02-15T11:29:43.568Z,27.80
2023-02-15T11:32:23.679Z,27.70
2023-02-15T11:35:01.844Z,27.60
2023-02-15T11:37:42.557Z,27.60
2023-02-15T11:40:43.788Z,27.60
2023-02-15T11:43:24.667Z,27.50
2023-02-15T11:45:53.809Z,27.50
2023-02-15T11:48:26.897Z,27.40
2023-02-15T11:50:55.866Z,27.40
2023-02-15T11:53:29.754Z,27.40
2023-02-15T11:55:58.482Z,27.30
2023-02-15T11:58:44.741Z,27.30
2023-02-15T12:01:35.134Z,27.30
2023-02-15T12:04:33.359Z,27.20
2023-02-15T12:07:05.448Z,27.20
2023-02-15T12:09:52.421Z,27.20
2023-02-15T12:12:35.891Z,27.20
2023-02-15T12:15:07.539Z,27.20
2023-02-15T12:17:42.251Z,27.20
2023-02-15T12:20:16.960Z,27.10
2023-02-15T12:22:54.385Z,27.10
2023-02-15T12:25:38.870Z,27.00
2023-02-15T12:28:40.711Z,27.00
2023-02-15T12:31:39.458Z,27.00
2023-02-15T12:34:33.300Z,26.90
2023-02-15T12:37:23.751Z,26.90
2023-02-15T12:39:58.770Z,26.90
2023-02-15T12:42:31.157Z,26.80
2023-02-15T12:45:21.484Z,26.80
2023-02-15T12:48:17.980Z,26.70
2023-02-15T12:50:57.517Z,26.70
2023-02-15T12:53:35.591Z,26.60
2023-02-15T12:56:12.765Z,26.60
2023-02-15T12:58:43.600Z,26.60
2023-02-15T13:01:15.605Z,26.50
2023-02-15T13:04:06.837Z,26.50
2023-02-15T13:06:38.348Z,26.50
2023-02-15T13:09:29.981Z,26.40
2023-02-15T13:12:13.029Z,26.40
2023-02-15T13:14:53.530Z,26.40
2023-02-15T13:17:33.220Z,26.30
2023-02-15T13:20:11.845Z,26.30
2023-02-15T13:22:47.750Z,26.30
2023-02-15T13:25:31.445Z,26.30
2023-02-15T13:28:12.983Z,26.30
2023-02-15T13:30:46.899Z,26.20
2023-02-15T13:33:18.816Z,26.20
2023-02-15T13:35:59.214Z,26.20
2023-02-15T13:38:49.551Z,26.20
2023-02-15T13:41:36.444Z,26.30
2023-02-15T13:44:13.501Z,26.30
2023-02-15T13:47:10.459Z,26.30
2023-02-15T13:49:52.828Z,26.30
2023-02-15T13:52:30.137Z,26.30
2023-02-15T13:55:17.430Z,26.30
2023-02-15T13:57:50.515Z,26.30
2023-02-15T14:00:46.930Z,26.30
2023-02-15T14:03:43.031Z,26.30
2023-02-15T14:06:41.041Z,26.30
2023-02-15T14:09:22.539Z,26.20
2023-02-15T14:12:05.708Z,26.20
2023-02-15T14:14:42.720Z,26.20
2023-02-15T14:17:24.390Z,26.10
2023-02-15T14:20:01.596Z,26.10
2023-02-15T14:22:46.836Z,26.10
2023-02-15T14:25:22.012Z,26.10
2023-02-15T14:28:25.217Z,26.10
2023-02-15T14:30:55.430Z,26.00
2023-02-15T14:33:44.901Z,26.00
2023-02-15T14:36:19.261Z,26.00
2023-02-15T14:38:57.101Z,25.90
2023-02-15T14:41:40.931Z,25.80
2023-02-15T14:44:25.121Z,25.80
2023-02-15T14:46:53.541Z,25.80
2023-02-15T14:49:33.584Z,25.70
2023-02-15T14:52:10.487Z,25.70
2023-02-15T14:54:39.458Z,25.60
2023-02-15T14:57:08.418Z,25.60
2023-02-15T14:59:48.745Z,25.60
2023-02-15T15:02:29.768Z,25.60
2023-02-15T15:05:09.900Z,25.60
2023-02-15T15:07:51.823Z,25.50
2023-02-15T15:10:22.016Z,25.50
2023-02-15T15:12:55.694Z,25.50
2023-02-15T15:15:33.319Z,25.40
2023-02-15T15:18:05.254Z,25.40
2023-02-15T15:20:53.679Z,25.30
2023-02-15T15:23:23.066Z,25.30
2023-02-15T15:26:17.767Z,25.30
2023-02-15T15:28:46.217Z,25.30
2023-02-15T15:31:33.847Z,25.20
2023-02-15T15:34:44.468Z,25.20
2023-02-15T15:37:58.011Z,25.10
2023-02-15T15:40:36.511Z,25.10
2023-02-15T15:43:23.629Z,25.10
2023-02-15T15:46:33.768Z,25.00
2023-02-15T15:49:15.568Z,25.00
2023-02-15T15:51:46.109Z,24.90
2023-02-15T15:54:32.404Z,24.90
2023-02-15T15:57:06.057Z,24.90
2023-02-15T15:59:36.417Z,24.80
2023-02-15T16:02:19.851Z,24.80
2023-02-15T16:04:49.877Z,24.80
2023-02-15T16:07:21.586Z,24.70
2023-02-15T16:10:05.286Z,24.70
2023-02-15T16:12:37.355Z,24.70
2023-02-15T16:15:35.966Z,24.60
2023-02-15T16:18:05.255Z,24.60
2023-02-15T16:20:37.741Z,24.50
2023-02-15T16:23:28.188Z,24.50
2023-02-15T16:26:03.460Z,24.50
2023-02-15T16:28:32.756Z,24.40
2023-02-15T16:31:17.564Z,24.40
2023-02-15T16:33:47.724Z,24.40
2023-02-15T16:36:30.953Z,24.30
2023-02-15T16:38:59.806Z,24.30
2023-02-15T16:41:31.649Z,24.20
2023-02-15T16:44:05.604Z,24.20
2023-02-15T16:46:42.014Z,24.20
2023-02-15T16:49:19.541Z,24.10
2023-02-15T16:52:10.684Z,24.10
2023-02-15T16:54:39.571Z,24.10
2023-02-15T16:57:16.650Z,24.00
2023-02-15T16:59:49.733Z,24.00
2023-02-15T17:02:43.211Z,24.00
2023-02-15T17:05:21.174Z,23.90
2023-02-15T17:08:13.146Z,23.90
2023-02-15T17:10:44.012Z,23.80
2023-02-15T17:13:20.504Z,23.80
2023-02-15T17:16:25.344Z,23.80
2023-02-15T17:18:55.895Z,23.70
2023-02-15T17:21:36.254Z,23.70
2023-02-15T17:24:06.622Z,23.70
2023-02-15T17:26:40.868Z,23.60
2023-02-15T17:29:36.750Z,23.60
2023-02-15T17:32:07.693Z,23.60
2023-02-15T17:34:50.924Z,23.50
2023-02-15T17:37:30.148Z,23.50
2023-02-15T17:40:00.683Z,23.40
2023-02-15T17:42:29.594Z,23.40
2023-02-15T17:45:01.120Z,23.40
2023-02-15T17:47:31.176Z,23.30
2023-02-15T17:50:00.414Z,23.30
2023-02-15T17:52:31.813Z,23.20
2023-02-15T17:55:20.272Z,23.20
2023-02-15T17:57:49.316Z,23.20
2023-02-15T18:00:36.795Z,23.10
2023-02-15T18:03:24.028Z,23.10
2023-02-15T18:06:11.211Z,23.00
2023-02-15T18:08:58.737Z,23.00
2023-02-15T18:11:39.190Z,22.90
2023-02-15T18:14:10.501Z,22.80
2023-02-15T18:16:44.562Z,22.80
2023-02-15T18:19:20.367Z,22.70
2023-02-15T18:21:49.856Z,22.70
2023-02-15T18:24:22.828Z,22.70
2023-02-15T18:26:52.764Z,22.60
2023-02-15T18:29:22.422Z,22.60
2023-02-15T18:31:55.582Z,22.60
2023-02-15T18:34:32.179Z,22.50
2023-02-15T18:37:03.710Z,22.50
2023-02-15T18:39:58.133Z,22.50
2023-02-15T18:42:33.379Z,22.40
2023-02-15T18:45:09.125Z,22.40
2023-02-15T18:47:38.067Z,22.30
2023-02-15T18:50:08.069Z,22.30
2023-02-15T18:52:39.775Z,22.20
2023-02-15T18:55:19.386Z,22.30
2023-02-15T18:57:50.078Z,22.20
2023-02-15T19:00:21.208Z,22.20
2023-02-15T19:02:50.298Z,22.20
2023-02-15T19:05:19.515Z,22.10
2023-02-15T19:07:51.670Z,22.10
2023-02-15T19:10:26.396Z,22.00
2023-02-15T19:12:56.291Z,22.00
2023-02-15T19:15:27.982Z,22.00
2023-02-15T19:17:57.378Z,22.00
2023-02-15T19:20:29.345Z,22.00
2023-02-15T19:22:59.814Z,21.90
2023-02-15T19:25:31.898Z,21.90
2023-02-15T19:28:01.221Z,21.90
2023-02-15T19:30:32.903Z,21.90
2023-02-15T19:33:03.296Z,21.80
2023-02-15T19:35:35.711Z,21.80
2023-02-15T19:38:09.160Z,21.80
2023-02-15T19:40:38.281Z,21.80
2023-02-15T19:43:20.169Z,21.80
2023-02-15T19:45:49.202Z,21.70
2023-02-15T19:48:18.091Z,21.70
2023-02-15T19:50:50.711Z,21.70
2023-02-15T19:53:27.880Z,21.70
2023-02-15T19:55:56.990Z,21.70
2023-02-15T19:58:25.972Z,21.60
2023-02-15T20:00:54.919Z,21.60
2023-02-15T20:03:23.896Z,21.60
2023-02-15T20:05:52.892Z,21.60
2023-02-15T20:08:23.952Z,21.50
2023-02-15T20:10:52.885Z,21.50
2023-02-15T20:13:22.583Z,21.50
2023-02-15T20:15:52.076Z,21.50
2023-02-15T20:18:22.603Z,21.50
2023-02-15T20:20:56.540Z,21.50
2023-02-15T20:23:30.305Z,21.40
2023-02-15T20:26:02.488Z,21.40
2023-02-15T20:28:32.894Z,21.40
2023-02-15T20:31:02.228Z,21.40
2023-02-15T20:33:31.412Z,21.40
2023-02-15T20:36:00.953Z,21.30
2023-02-15T20:38:32.715Z,21.40
2023-02-15T20:41:21.125Z,21.30
2023-02-15T20:43:50.049Z,21.30
2023-02-15T20:46:19.043Z,21.30
2023-02-15T20:48:47.942Z,21.20
2023-02-15T20:51:22.857Z,21.20
2023-02-15T20:53:51.796Z,21.20
2023-02-15T20:56:26.127Z,21.20
2023-02-15T20:58:55.474Z,21.20
2023-02-15T21:01:24.354Z,21.20
2023-02-15T21:03:53.377Z,21.20
2023-02-15T21:06:22.292Z,21.10
2023-02-15T21:08:51.151Z,21.10
2023-02-15T21:11:22.183Z,21.10
2023-02-15T21:13:54.196Z,21.00
2023-02-15T21:16:23.241Z,21.00
2023-02-15T21:18:52.147Z,21.00
2023-02-15T21:21:24.797Z,21.00
2023-02-15T21:23:54.816Z,21.00
2023-02-15T21:26:24.972Z,21.00
2023-02-15T21:28:54.014Z,21.00
2023-02-15T21:31:26.333Z,21.00
2023-02-15T21:33:56.322Z,20.90
2023-02-15T21:36:26.637Z,20.90
2023-02-15T21:38:55.858Z,20.90
2023-02-15T21:41:45.626Z,20.90
2023-02-15T21:44:39.618Z,20.90
2023-02-15T21:47:36.048Z,20.80
2023-02-15T21:50:25.334Z,20.80
2023-02-15T21:52:54.750Z,20.80
2023-02-15T21:55:23.729Z,20.80
2023-02-15T21:57:52.912Z,20.80
2023-02-15T22:00:24.994Z,20.80
2023-02-15T22:02:56.362Z,20.80
2023-02-15T22:05:35.592Z,20.80
2023-02-15T22:08:04.739Z,20.70
2023-02-15T22:10:34.539Z,20.80
2023-02-15T22:13:05.025Z,20.80
2023-02-15T22:15:37.752Z,20.80
2023-02-15T22:18:07.544Z,20.70
2023-02-15T22:20:36.453Z,20.80
2023-02-15T22:23:06.058Z,20.70
2023-02-15T22:25:34.951Z,20.80
2023-02-15T22:28:03.928Z,20.70
2023-02-15T22:30:38.487Z,20.80
2023-02-15T22:33:08.515Z,20.70
2023-02-15T22:35:38.813Z,20.70
2023-02-15T22:38:07.661Z,20.70
2023-02-15T22:40:36.522Z,20.70
2023-02-15T22:43:07.762Z,20.80
2023-02-15T22:45:37.443Z,20.80
2023-02-15T22:48:06.521Z,20.80
2023-02-15T22:50:37.561Z,20.80
2023-02-15T22:53:06.790Z,20.80
2023-02-15T22:55:39.031Z,20.80
2023-02-15T22:58:08.562Z,20.80
2023-02-15T23:00:41.376Z,20.80
2023-02-15T23:03:25.904Z,20.80
2023-02-15T23:05:54.430Z,20.80
2023-02-15T23:08:23.564Z,20.80
2023-02-15T23:10:59.041Z,20.80
2023-02-15T23:13:33.381Z,20.80
2023-02-15T23:16:04.468Z,20.80
2023-02-15T23:18:45.065Z,20.80
2023-02-15T23:21:27.842Z,20.80
2023-02-15T23:24:07.271Z,20.80
2023-02-15T23:26:36.186Z,20.70
2023-02-15T23:29:07.930Z,20.70
2023-02-15T23:31:40.372Z,20.80
2023-02-15T23:34:20.223Z,20.70
2023-02-15T23:36:49.359Z,20.70
2023-02-15T23:39:42.946Z,20.70
2023-02-15T23:42:18.165Z,20.70
2023-02-15T23:44:48.389Z,20.80
2023-02-15T23:47:52.663Z,20.80
2023-02-15T23:50:23.981Z,20.80
2023-02-15T23:52:59.106Z,20.80
2023-02-15T23:55:44.002Z,20.80
2023-02-15T23:58:38.517Z,20.80
